sensor_id;sensor_type;location;lat;lon;timestamp;P1;durP1;ratioP1;P2;durP2;ratioP2
7585;SDS011;12459;42.646;23.292;2023-07-24T00:00:40;40.50;;;38.63;;
7585;SDS011;12459;42.646;23.292;2023-07-24T00:15:42;38.90;;;37.10;;
7585;SDS011;12459;42.646;23.292;2023-07-24T00:45:46;38.13;;;36.37;;
7585;SDS011;12459;42.646;23.292;2023-07-24T01:00:49;34.77;;;33.17;;
7585;SDS011;12459;42.646;23.292;2023-07-24T01:16:02;40.30;;;38.47;;
7585;SDS011;12459;42.646;23.292;2023-07-24T01:31:10;36.33;;;34.63;;
7585;SDS011;12459;42.646;23.292;2023-07-24T01:46:11;35.53;;;33.90;;
7585;SDS011;12459;42.646;23.292;2023-07-24T02:16:16;33.90;;;32.30;;
7585;SDS011;12459;42.646;23.292;2023-07-24T02:46:19;35.50;;;33.90;;
7585;SDS011;12459;42.646;23.292;2023-07-24T03:01:21;31.27;;;29.77;;
7585;SDS011;12459;42.646;23.292;2023-07-24T03:16:22;32.00;;;30.50;;
7585;SDS011;12459;42.646;23.292;2023-07-24T03:31:24;33.60;;;32.03;;
7585;SDS011;12459;42.646;23.292;2023-07-24T03:46:26;30.87;;;29.43;;
7585;SDS011;12459;42.646;23.292;2023-07-24T04:01:28;35.57;;;33.93;;
7585;SDS011;12459;42.646;23.292;2023-07-24T04:31:32;30.70;;;29.30;;
7585;SDS011;12459;42.646;23.292;2023-07-24T04:46:34;40.93;;;39.03;;
7585;SDS011;12459;42.646;23.292;2023-07-24T05:01:36;41.47;;;39.57;;
7585;SDS011;12459;42.646;23.292;2023-07-24T05:16:38;37.53;;;35.83;;
7585;SDS011;12459;42.646;23.292;2023-07-24T05:31:40;41.87;;;39.97;;
7585;SDS011;12459;42.646;23.292;2023-07-24T05:46:42;47.03;;;44.93;;
7585;SDS011;12459;42.646;23.292;2023-07-24T06:01:44;49.23;;;47.00;;
7585;SDS011;12459;42.646;23.292;2023-07-24T06:16:45;53.27;;;50.87;;
7585;SDS011;12459;42.646;23.292;2023-07-24T06:31:47;57.27;;;54.70;;
7585;SDS011;12459;42.646;23.292;2023-07-24T06:46:49;56.30;;;53.80;;
7585;SDS011;12459;42.646;23.292;2023-07-24T07:01:50;54.23;;;51.80;;
7585;SDS011;12459;42.646;23.292;2023-07-24T07:16:52;57.17;;;54.57;;
7585;SDS011;12459;42.646;23.292;2023-07-24T07:31:54;54.17;;;51.73;;
7585;SDS011;12459;42.646;23.292;2023-07-24T07:46:56;57.13;;;54.53;;
7585;SDS011;12459;42.646;23.292;2023-07-24T08:01:58;53.50;;;51.10;;
7585;SDS011;12459;42.646;23.292;2023-07-24T08:16:59;59.60;;;56.90;;
7585;SDS011;12459;42.646;23.292;2023-07-24T08:32:01;58.90;;;56.23;;
7585;SDS011;12459;42.646;23.292;2023-07-24T08:47:03;61.13;;;58.40;;
7585;SDS011;12459;42.646;23.292;2023-07-24T09:02:07;64.37;;;61.47;;
7585;SDS011;12459;42.646;23.292;2023-07-24T09:17:10;59.30;;;56.63;;
7585;SDS011;12459;42.646;23.292;2023-07-24T09:32:22;63.27;;;60.47;;
7585;SDS011;12459;42.646;23.292;2023-07-24T09:47:25;63.30;;;60.47;;
7585;SDS011;12459;42.646;23.292;2023-07-24T10:02:47;71.60;;;68.40;;
7585;SDS011;12459;42.646;23.292;2023-07-24T10:17:49;68.20;;;65.17;;
7585;SDS011;12459;42.646;23.292;2023-07-24T10:33:04;61.47;;;58.67;;
7585;SDS011;12459;42.646;23.292;2023-07-24T10:48:07;72.23;;;69.03;;
7585;SDS011;12459;42.646;23.292;2023-07-24T11:03:13;74.40;;;71.07;;
7585;SDS011;12459;42.646;23.292;2023-07-24T11:18:15;67.63;;;64.60;;
7585;SDS011;12459;42.646;23.292;2023-07-24T11:33:17;66.57;;;63.57;;
7585;SDS011;12459;42.646;23.292;2023-07-24T11:48:21;72.33;;;69.10;;
7585;SDS011;12459;42.646;23.292;2023-07-24T12:03:25;67.93;;;64.93;;
7585;SDS011;12459;42.646;23.292;2023-07-24T12:33:30;70.43;;;67.27;;
7585;SDS011;12459;42.646;23.292;2023-07-24T12:48:32;74.60;;;71.27;;
7585;SDS011;12459;42.646;23.292;2023-07-24T13:03:34;71.80;;;68.60;;
7585;SDS011;12459;42.646;23.292;2023-07-24T13:18:36;64.23;;;61.33;;
7585;SDS011;12459;42.646;23.292;2023-07-24T13:33:37;65.87;;;62.90;;
7585;SDS011;12459;42.646;23.292;2023-07-24T13:48:39;71.07;;;67.87;;
7585;SDS011;12459;42.646;23.292;2023-07-24T14:03:41;68.00;;;64.93;;
7585;SDS011;12459;42.646;23.292;2023-07-24T14:18:52;61.20;;;58.43;;
7585;SDS011;12459;42.646;23.292;2023-07-24T14:33:54;62.47;;;59.67;;
7585;SDS011;12459;42.646;23.292;2023-07-24T14:48:56;60.80;;;58.03;;
7585;SDS011;12459;42.646;23.292;2023-07-24T15:03:58;59.30;;;56.60;;
7585;SDS011;12459;42.646;23.292;2023-07-24T15:19:00;58.00;;;55.40;;
7585;SDS011;12459;42.646;23.292;2023-07-24T15:34:02;66.43;;;63.43;;
7585;SDS011;12459;42.646;23.292;2023-07-24T15:49:04;65.07;;;62.17;;
7585;SDS011;12459;42.646;23.292;2023-07-24T16:04:06;63.83;;;60.93;;
7585;SDS011;12459;42.646;23.292;2023-07-24T16:19:11;58.43;;;55.80;;
7585;SDS011;12459;42.646;23.292;2023-07-24T16:34:17;58.73;;;56.10;;
7585;SDS011;12459;42.646;23.292;2023-07-24T16:49:19;58.10;;;55.50;;
7585;SDS011;12459;42.646;23.292;2023-07-24T17:04:21;61.03;;;58.30;;
7585;SDS011;12459;42.646;23.292;2023-07-24T17:19:22;56.23;;;53.73;;
7585;SDS011;12459;42.646;23.292;2023-07-24T17:34:24;56.17;;;53.63;;
7585;SDS011;12459;42.646;23.292;2023-07-24T17:49:26;51.27;;;48.97;;
7585;SDS011;12459;42.646;23.292;2023-07-24T18:04:28;51.23;;;48.93;;
7585;SDS011;12459;42.646;23.292;2023-07-24T18:19:30;51.13;;;48.83;;
7585;SDS011;12459;42.646;23.292;2023-07-24T18:34:32;49.67;;;47.40;;
7585;SDS011;12459;42.646;23.292;2023-07-24T18:49:33;51.67;;;49.37;;
7585;SDS011;12459;42.646;23.292;2023-07-24T19:04:35;45.93;;;43.83;;
7585;SDS011;12459;42.646;23.292;2023-07-24T19:19:37;47.60;;;45.40;;
7585;SDS011;12459;42.646;23.292;2023-07-24T19:34:39;50.17;;;47.87;;
7585;SDS011;12459;42.646;23.292;2023-07-24T19:49:41;51.67;;;49.33;;
7585;SDS011;12459;42.646;23.292;2023-07-24T20:04:44;43.33;;;41.33;;
7585;SDS011;12459;42.646;23.292;2023-07-24T20:19:45;49.00;;;46.80;;
7585;SDS011;12459;42.646;23.292;2023-07-24T20:34:47;46.77;;;44.67;;
7585;SDS011;12459;42.646;23.292;2023-07-24T20:49:49;43.47;;;41.47;;
7585;SDS011;12459;42.646;23.292;2023-07-24T21:04:51;45.23;;;43.13;;
7585;SDS011;12459;42.646;23.292;2023-07-24T21:19:56;42.57;;;40.60;;
7585;SDS011;12459;42.646;23.292;2023-07-24T21:34:58;38.70;;;36.90;;
7585;SDS011;12459;42.646;23.292;2023-07-24T21:50:00;42.83;;;40.87;;
7585;SDS011;12459;42.646;23.292;2023-07-24T22:05:02;44.33;;;42.33;;
7585;SDS011;12459;42.646;23.292;2023-07-24T22:20:04;41.30;;;39.40;;
7585;SDS011;12459;42.646;23.292;2023-07-24T22:35:07;41.83;;;39.93;;
7585;SDS011;12459;42.646;23.292;2023-07-24T22:50:09;41.13;;;39.23;;
7585;SDS011;12459;42.646;23.292;2023-07-24T23:05:11;40.37;;;38.50;;
7585;SDS011;12459;42.646;23.292;2023-07-24T23:20:14;42.20;;;40.30;;
7585;SDS011;12459;42.646;23.292;2023-07-24T23:35:16;38.27;;;36.50;;
7585;SDS011;12459;42.646;23.292;2023-07-24T23:50:18;36.57;;;34.87;;
